Time;durP1;ratioP1;P1;durP2;ratioP2;P2;SDS_P1;SDS_P2;PMS_P1;PMS_P2;Temp;Humidity;BMP_temperature;BMP_pressure;BME280_temperature;BME280_humidity;BME280_pressure;Samples;Min_cycle;Max_cycle;Signal;HPM_P1;HPM_P2
2021/12/19 00:18:02;;;;;;;17.35;7.65;;;;;;;2.23;100.00;97772.88;20398096;28;20544;-72
2021/12/19 00:28:03;;;;;;;12.88;5.65;;;;;;;2.03;100.00;97780.63;20382926;28;20090;-72
2021/12/19 00:38:04;;;;;;;15.02;6.65;;;;;;;1.82;100.00;97773.69;20415558;28;20055;-71
2021/12/19 00:48:06;;;;;;;12.93;5.38;;;;;;;1.85;100.00;97788.16;20428776;28;20491;-74
2021/12/19 00:58:07;;;;;;;13.57;5.93;;;;;;;1.77;100.00;97771.63;20410653;28;20078;-72
2021/12/19 01:08:08;;;;;;;18.92;8.00;;;;;;;1.78;100.00;97764.63;20406313;28;20343;-72
2021/12/19 01:18:09;;;;;;;20.55;8.65;;;;;;;1.82;100.00;97742.34;20422947;28;20098;-72
2021/12/19 01:28:10;;;;;;;28.40;9.95;;;;;;;1.73;100.00;97746.88;20438148;28;20047;-72
2021/12/19 01:38:10;;;;;;;34.97;8.55;;;;;;;1.76;100.00;97745.72;20378892;28;20055;-72
2021/12/19 01:48:12;;;;;;;26.13;11.15;;;;;;;1.82;100.00;97731.88;20392770;28;20039;-72
2021/12/19 01:58:13;;;;;;;29.27;10.90;;;;;;;1.82;100.00;97726.66;20356925;28;20364;-73
2021/12/19 02:08:15;;;;;;;27.55;9.95;;;;;;;1.80;100.00;97739.13;20380032;28;20131;-73
2021/12/19 02:18:18;;;;;;;27.35;10.95;;;;;;;1.84;100.00;97718.63;20411014;28;20051;-74
2021/12/19 02:28:19;;;;;;;27.33;11.10;;;;;;;1.84;100.00;97713.38;20401743;28;20063;-71
2021/12/19 02:39:07;;;;;;;29.88;10.77;;;;;;;1.94;100.00;97701.59;20405029;28;20471;-72
2021/12/19 02:48:42;;;;;;;21.60;10.43;;;;;;;1.93;100.00;97691.34;20406159;28;20583;-73
2021/12/19 02:58:43;;;;;;;30.25;11.60;;;;;;;1.98;100.00;97688.94;20407995;28;20054;-72
2021/12/19 03:08:47;;;;;;;27.17;10.88;;;;;;;2.00;100.00;97676.47;20405439;28;20071;-73
2021/12/19 03:18:47;;;;;;;22.77;9.68;;;;;;;2.05;100.00;97673.28;20403102;28;20373;-72
2021/12/19 03:28:48;;;;;;;23.63;9.23;;;;;;;2.05;100.00;97663.63;20420887;28;20071;-72
2021/12/19 03:38:49;;;;;;;20.35;8.90;;;;;;;2.03;100.00;97657.81;20432706;28;22085;-72
2021/12/19 03:48:49;;;;;;;20.15;8.68;;;;;;;1.97;100.00;97655.97;20447664;28;20518;-72
2021/12/19 03:58:51;;;;;;;20.58;9.15;;;;;;;2.03;100.00;97649.97;20423384;28;20043;-71
2021/12/19 04:08:51;;;;;;;25.08;9.65;;;;;;;2.07;100.00;97637.31;20411700;28;20399;-72
2021/12/19 04:18:52;;;;;;;21.90;9.25;;;;;;;2.10;100.00;97635.09;20426555;28;20050;-72
2021/12/19 04:28:52;;;;;;;23.00;10.38;;;;;;;2.13;100.00;97632.09;20418816;28;20137;-72
2021/12/19 05:21:01;;;;;;;27.73;10.60;;;;;;;2.07;100.00;97564.13;20403018;28;20047;-72
2021/12/19 05:31:02;;;;;;;26.75;11.20;;;;;;;2.07;100.00;97558.91;20426073;28;20069;-72
2021/12/19 05:51:29;;;;;;;27.73;9.97;;;;;;;2.13;100.00;97558.91;20417524;28;20138;-72
2021/12/19 06:01:29;;;;;;;27.10;10.18;;;;;;;2.14;100.00;97557.88;20419624;28;20054;-72
2021/12/19 06:11:30;;;;;;;24.80;9.05;;;;;;;2.14;100.00;97542.22;20411106;28;20047;-72
2021/12/19 06:21:30;;;;;;;28.15;10.07;;;;;;;2.12;100.00;97530.34;20417630;28;20527;-72
2021/12/19 06:31:30;;;;;;;23.05;9.05;;;;;;;2.08;100.00;97519.47;20410947;28;20044;-72
2021/12/19 06:41:31;;;;;;;26.77;10.18;;;;;;;1.98;100.00;97517.28;20395440;28;20036;-72
2021/12/19 06:51:32;;;;;;;23.55;9.93;;;;;;;1.82;100.00;97515.06;20417592;28;20508;-72
2021/12/19 07:01:32;;;;;;;21.23;9.18;;;;;;;1.67;100.00;97509.97;20417420;28;20044;-72
2021/12/19 07:11:33;;;;;;;22.05;7.30;;;;;;;1.80;100.00;97507.41;20431308;28;20044;-73
2021/12/19 07:21:33;;;;;;;17.23;7.15;;;;;;;1.79;100.00;97508.41;20425931;28;20059;-73
2021/12/19 07:31:37;;;;;;;16.08;6.72;;;;;;;1.71;100.00;97510.41;20424438;28;20353;-71
2021/12/19 07:41:37;;;;;;;17.42;7.20;;;;;;;1.67;100.00;97504.75;20438770;28;20209;-73
2021/12/19 07:51:38;;;;;;;22.23;8.05;;;;;;;1.63;100.00;97507.97;20414579;28;20074;-73
2021/12/19 08:01:38;;;;;;;17.77;7.18;;;;;;;1.64;100.00;97499.94;20411613;28;20399;-73
2021/12/19 08:11:42;;;;;;;16.08;5.72;;;;;;;1.75;100.00;97499.34;20422439;28;20467;-72
2021/12/19 08:21:42;;;;;;;15.50;6.43;;;;;;;1.71;100.00;97495.53;20420807;28;20103;-73
2021/12/19 08:31:42;;;;;;;15.13;6.43;;;;;;;1.83;100.00;97502.78;20415601;28;20168;-73
2021/12/19 08:41:43;;;;;;;10.35;4.75;;;;;;;2.05;100.00;97485.94;20426088;28;20059;-73
2021/12/19 08:51:46;;;;;;;14.40;5.05;;;;;;;2.16;100.00;97487.91;20424590;28;20057;-73
2021/12/19 09:01:48;;;;;;;10.93;4.93;;;;;;;2.25;100.00;97477.25;20388510;28;20135;-74
2021/12/19 09:11:48;;;;;;;11.82;4.72;;;;;;;2.37;100.00;97471.25;20371911;28;20031;-72
2021/12/19 09:21:49;;;;;;;9.45;4.30;;;;;;;2.56;100.00;97477.44;20393245;28;20063;-71
2021/12/19 09:31:49;;;;;;;10.73;4.47;;;;;;;2.66;100.00;97473.59;20392666;28;20047;-72
2021/12/19 09:41:55;;;;;;;8.23;3.13;;;;;;;3.06;100.00;97471.66;20348020;28;20401;-73
2021/12/19 09:51:56;;;;;;;10.80;3.57;;;;;;;3.23;100.00;97461.53;20425166;28;20055;-72
2021/12/19 10:01:57;;;;;;;7.72;3.42;;;;;;;3.33;100.00;97459.25;20437678;28;20301;-72
2021/12/19 10:12:11;;;;;;;8.07;3.28;;;;;;;3.38;100.00;97446.31;20418508;28;20039;-73
2021/12/19 10:22:33;;;;;;;7.78;3.13;;;;;;;3.47;100.00;97422.50;20360558;28;20047;-71
2021/12/19 10:32:34;;;;;;;8.23;3.67;;;;;;;3.92;100.00;97414.53;20342794;28;20070;-72
2021/12/19 10:42:58;;;;;;;8.48;3.92;;;;;;;4.38;100.00;97384.44;20410548;28;20134;-72
2021/12/19 10:53:05;;;;;;;12.30;5.53;;;;;;;4.50;100.00;97366.97;20344296;28;20051;-72
2021/12/19 11:03:05;;;;;;;7.60;3.23;;;;;;;5.08;100.00;97356.97;20292043;28;20463;-71
2021/12/19 11:13:11;;;;;;;7.07;3.10;;;;;;;5.43;100.00;97336.03;20310981;28;20047;-72
2021/12/19 11:23:12;;;;;;;7.23;3.70;;;;;;;5.91;100.00;97306.13;20315920;28;20040;-73
2021/12/19 11:33:40;;;;;;;6.88;3.38;;;;;;;5.81;100.00;97287.50;20346423;28;20051;-72
2021/12/19 11:54:16;;;;;;;6.17;2.67;;;;;;;5.10;100.00;97276.91;20400664;28;20076;-72
2021/12/19 12:04:18;;;;;;;5.82;2.58;;;;;;;5.75;100.00;97252.41;20417324;28;20067;-74
2021/12/19 12:14:27;;;;;;;5.53;2.20;;;;;;;5.45;100.00;97234.13;20361304;28;20233;-73
2021/12/19 12:24:28;;;;;;;4.55;1.83;;;;;;;5.71;100.00;97219.72;20377186;28;20546;-74
2021/12/19 12:34:28;;;;;;;6.28;2.50;;;;;;;6.01;100.00;97201.19;20409116;28;20354;-73
2021/12/19 12:44:29;;;;;;;5.63;2.05;;;;;;;7.01;100.00;97174.50;20358044;28;20636;-74
2021/12/19 12:54:35;;;;;;;5.15;2.10;;;;;;;8.39;100.00;97160.41;20345086;28;20249;-74
2021/12/19 13:04:37;;;;;;;5.77;2.23;;;;;;;8.11;100.00;97156.19;20365290;28;20130;-74
2021/12/19 13:15:09;;;;;;;5.57;1.83;;;;;;;6.88;100.00;97144.00;20412876;28;20075;-74
2021/12/19 13:25:15;;;;;;;5.25;2.05;;;;;;;6.61;100.00;97139.38;20352516;28;20059;-75
2021/12/19 13:35:18;;;;;;;4.57;1.60;;;;;;;8.64;100.00;97120.28;20378702;28;20582;-69
2021/12/19 13:45:22;;;;;;;4.88;1.80;;;;;;;10.14;100.00;97111.25;20419614;28;20334;-71
2021/12/19 13:55:22;;;;;;;5.32;2.20;;;;;;;9.62;100.00;97112.94;20408352;28;20052;-70
2021/12/19 14:05:55;;;;;;;7.88;3.53;;;;;;;6.91;100.00;97127.72;20404245;28;20553;-71
2021/12/19 14:15:55;;;;;;;5.22;2.13;;;;;;;5.35;100.00;97145.41;20418465;28;20044;-71
2021/12/19 14:25:58;;;;;;;8.75;2.20;;;;;;;4.93;100.00;97128.97;20406730;28;20059;-71
2021/12/19 14:35:59;;;;;;;7.03;2.63;;;;;;;4.42;100.00;97118.03;20375024;28;20464;-73
2021/12/19 14:46:02;;;;;;;6.88;3.00;;;;;;;4.17;100.00;97107.72;20350335;28;20082;-71
2021/12/19 14:56:14;;;;;;;7.65;3.00;;;;;;;3.95;100.00;97120.53;20358435;28;20188;-72
2021/12/19 15:06:19;;;;;;;7.40;3.00;;;;;;;3.70;100.00;97110.97;20339452;28;20778;-75
2021/12/19 15:16:20;;;;;;;9.13;3.92;;;;;;;3.36;100.00;97105.28;20350864;28;20104;-74
2021/12/19 15:26:20;;;;;;;10.10;4.30;;;;;;;3.11;100.00;97101.94;20374021;28;20153;-75
2021/12/19 15:36:21;;;;;;;11.45;5.05;;;;;;;3.08;100.00;97102.38;20381633;28;20406;-75
2021/12/19 15:46:21;;;;;;;12.65;5.50;;;;;;;3.01;100.00;97098.00;20400359;28;20058;-74
2021/12/19 15:56:22;;;;;;;10.40;5.43;;;;;;;2.99;100.00;97101.84;20387534;28;20066;-74
2021/12/19 16:06:24;;;;;;;10.43;5.35;;;;;;;3.01;100.00;97098.00;20418276;28;20062;-75
2021/12/19 16:16:24;;;;;;;11.32;5.50;;;;;;;2.87;100.00;97086.06;20396401;28;20544;-75
2021/12/19 16:26:25;;;;;;;14.63;7.93;;;;;;;2.80;100.00;97080.09;20388176;28;20052;-75
2021/12/19 16:36:25;;;;;;;14.52;8.07;;;;;;;2.70;100.00;97067.50;20379817;28;20087;-75
2021/12/19 16:46:25;;;;;;;15.25;8.07;;;;;;;2.69;100.00;97075.56;20420967;28;20039;-75
2021/12/19 16:56:26;;;;;;;16.60;7.72;;;;;;;2.65;100.00;97061.31;20374551;28;20767;-74
2021/12/19 17:06:27;;;;;;;15.32;8.20;;;;;;;2.56;100.00;97066.81;20380400;28;20058;-74
2021/12/19 17:16:27;;;;;;;16.38;8.07;;;;;;;2.59;100.00;97063.75;20375371;28;20437;-74
2021/12/19 17:26:28;;;;;;;15.68;7.80;;;;;;;2.59;100.00;97057.75;20367711;28;20039;-74
2021/12/19 17:36:29;;;;;;;17.13;7.95;;;;;;;2.64;100.00;97049.28;20411041;28;20055;-76
2021/12/19 17:46:30;;;;;;;17.85;8.55;;;;;;;2.62;100.00;97054.72;20372546;28;20122;-76
2021/12/19 17:56:31;;;;;;;17.02;8.63;;;;;;;2.63;100.00;97053.69;20369797;28;20055;-74
2021/12/19 18:06:33;;;;;;;15.60;7.93;;;;;;;2.58;100.00;97032.63;20375576;28;20052;-74
2021/12/19 18:16:34;;;;;;;14.90;7.75;;;;;;;2.63;100.00;97029.34;20363278;28;20043;-74
2021/12/19 18:26:34;;;;;;;17.25;9.52;;;;;;;2.58;100.00;97030.78;20365817;28;20094;-74
2021/12/19 18:36:39;;;;;;;20.00;9.73;;;;;;;2.56;100.00;97019.75;20369694;28;20047;-72
2021/12/19 18:56:40;;;;;;;21.77;10.48;;;;;;;2.54;100.00;97019.16;20387932;28;20459;-74
2021/12/19 19:06:43;;;;;;;22.33;11.82;;;;;;;2.60;100.00;97046.28;20390858;28;20051;-74
2021/12/19 19:16:45;;;;;;;22.63;11.38;;;;;;;2.60;100.00;97041.03;20405734;28;20047;-76
2021/12/19 19:26:47;;;;;;;22.98;11.32;;;;;;;2.66;100.00;97023.69;20403878;28;20465;-73
2021/12/19 19:36:51;;;;;;;20.20;10.65;;;;;;;2.59;100.00;97015.91;20389275;28;20103;-76
2021/12/19 19:57:12;;;;;;;23.23;11.52;;;;;;;2.49;100.00;97015.59;20377911;28;20419;-76
2021/12/19 20:07:12;;;;;;;21.33;10.55;;;;;;;2.50;100.00;97019.81;20404192;28;20110;-72
2021/12/19 20:17:14;;;;;;;24.23;11.02;;;;;;;2.33;100.00;97009.91;20312013;28;20146;-73
2021/12/19 20:27:14;;;;;;;24.35;10.88;;;;;;;2.31;100.00;97018.94;20357861;28;20050;-72
2021/12/19 20:37:15;;;;;;;20.50;9.73;;;;;;;2.20;100.00;97015.22;20399625;28;20051;-72
2021/12/19 20:47:15;;;;;;;16.63;8.18;;;;;;;2.24;100.00;97020.84;20412652;28;20071;-74
2021/12/19 20:57:16;;;;;;;19.85;9.05;;;;;;;2.29;100.00;97016.56;20412053;28;20038;-72
2021/12/19 21:07:16;;;;;;;22.02;9.50;;;;;;;2.31;100.00;97021.56;20429608;28;20047;-74
2021/12/19 21:27:38;;;;;;;21.63;9.98;;;;;;;2.31;100.00;97016.34;20403060;28;20079;-73
2021/12/19 21:48:01;;;;;;;15.20;6.47;;;;;;;2.40;100.00;97022.91;20426311;28;20047;-73
2021/12/19 21:58:01;;;;;;;8.60;3.45;;;;;;;2.35;100.00;97015.72;20404103;28;20102;-73
2021/12/19 22:08:03;;;;;;;5.68;2.08;;;;;;;2.40;100.00;97007.22;20384566;28;20495;-72
2021/12/19 22:18:09;;;;;;;5.10;1.65;;;;;;;2.39;100.00;97008.22;20414089;28;20554;-73
2021/12/19 22:28:10;;;;;;;6.68;1.63;;;;;;;2.36;100.00;96988.53;20408916;28;20377;-75
2021/12/19 22:38:11;;;;;;;7.00;1.50;;;;;;;2.38;100.00;96998.78;20402564;28;20046;-72
2021/12/19 22:48:12;;;;;;;6.57;2.15;;;;;;;2.42;100.00;96985.06;20416238;28;20295;-74
2021/12/19 22:58:12;;;;;;;3.80;1.20;;;;;;;2.46;100.00;96974.19;20394652;28;21971;-73
2021/12/19 23:08:14;;;;;;;3.17;1.15;;;;;;;2.44;100.00;96979.63;20400496;28;20052;-73
2021/12/19 23:18:15;;;;;;;2.47;0.90;;;;;;;2.48;100.00;96966.94;20418174;28;20073;-74
2021/12/19 23:28:16;;;;;;;2.63;0.88;;;;;;;2.50;100.00;96957.84;20404294;28;20562;-74
2021/12/19 23:48:55;;;;;;;3.45;1.35;;;;;;;2.45;100.00;96955.06;20274533;28;20043;-72
2021/12/19 23:58:56;;;;;;;3.40;0.90;;;;;;;2.46;100.00;96961.13;20421740;28;20050;-72
